Time;durP1;ratioP1;P1;durP2;ratioP2;P2;SDS_P1;SDS_P2;PMS_P1;PMS_P2;Temp;Humidity;BMP_temperature;BMP_pressure;BME280_temperature;BME280_humidity;BME280_pressure;Samples;Min_cycle;Max_cycle;Signal;HPM_P1;HPM_P2
2023/03/04 00:01:42;;;;;;;21.77;2.92;;;6.90;99.70;;;;;;4992436;28;20392;-71
2023/03/04 00:04:07;;;;;;;17.10;2.45;;;6.90;99.60;;;;;;4992415;28;20455;-71
2023/03/04 00:06:33;;;;;;;14.07;2.45;;;6.80;99.50;;;;;;4992415;28;20042;-71
2023/03/04 00:08:59;;;;;;;15.93;2.80;;;6.80;99.20;;;;;;4992559;28;20031;-72
2023/03/04 00:11:24;;;;;;;12.65;2.78;;;6.80;99.00;;;;;;4992542;28;20469;-71
2023/03/04 00:13:50;;;;;;;19.88;3.42;;;6.80;99.00;;;;;;4992317;28;20046;-72
2023/03/04 00:16:16;;;;;;;17.20;2.58;;;6.80;98.90;;;;;;4976068;28;20045;-71
2023/03/04 00:18:41;;;;;;;11.63;2.28;;;6.80;98.90;;;;;;4992504;28;20050;-71
2023/03/04 00:21:07;;;;;;;15.20;1.98;;;6.80;98.90;;;;;;4992525;28;20042;-71
2023/03/04 00:23:32;;;;;;;15.25;2.10;;;6.80;98.80;;;;;;4992290;28;20487;-71
2023/03/04 00:25:58;;;;;;;16.33;2.38;;;6.80;98.80;;;;;;4992271;28;20077;-72
2023/03/04 00:28:24;;;;;;;15.98;2.60;;;6.80;98.90;;;;;;4975955;28;20039;-71
2023/03/04 00:30:49;;;;;;;18.65;2.60;;;6.80;98.90;;;;;;4992156;28;20045;-72
2023/03/04 00:33:15;;;;;;;15.88;2.83;;;6.80;99.10;;;;;;4992487;28;20046;-71
2023/03/04 00:35:41;;;;;;;22.95;2.97;;;6.80;99.10;;;;;;4995438;28;20048;-72
2023/03/04 00:38:07;;;;;;;16.45;3.00;;;6.80;99.20;;;;;;4995830;28;20062;-71
2023/03/04 00:40:32;;;;;;;27.88;4.00;;;6.80;99.40;;;;;;4979840;28;20046;-71
2023/03/04 00:42:58;;;;;;;17.92;2.80;;;6.80;99.50;;;;;;4995840;28;20495;-71
2023/03/04 00:45:23;;;;;;;12.63;2.42;;;6.80;99.60;;;;;;4979580;28;20069;-71
2023/03/04 00:47:49;;;;;;;16.42;3.20;;;6.80;99.70;;;;;;4995754;28;20050;-71
2023/03/04 00:50:15;;;;;;;19.42;2.70;;;6.80;99.70;;;;;;4979369;28;20044;-72
2023/03/04 00:52:40;;;;;;;17.70;3.42;;;6.70;99.60;;;;;;4995600;28;20034;-72
2023/03/04 00:55:07;;;;;;;16.38;3.13;;;6.70;99.60;;;;;;4979324;28;20034;-71
2023/03/04 00:57:33;;;;;;;15.65;2.60;;;6.70;99.60;;;;;;4995485;28;20042;-71
2023/03/04 00:59:59;;;;;;;18.08;2.25;;;6.70;99.70;;;;;;4979756;28;20056;-71
2023/03/04 01:02:25;;;;;;;17.52;3.50;;;6.80;99.80;;;;;;4995442;28;20129;-72
2023/03/04 01:04:51;;;;;;;20.67;3.45;;;6.80;99.70;;;;;;4979194;28;20039;-72
2023/03/04 01:07:17;;;;;;;17.02;2.53;;;6.80;99.60;;;;;;4995355;28;20042;-71
2023/03/04 01:09:42;;;;;;;19.25;2.88;;;6.80;99.60;;;;;;4979042;28;20101;-72
2023/03/04 01:12:08;;;;;;;16.08;2.38;;;6.80;99.60;;;;;;4995470;28;20109;-71
2023/03/04 01:14:33;;;;;;;16.48;2.33;;;6.80;99.70;;;;;;4995210;28;20077;-72
2023/03/04 01:16:59;;;;;;;14.75;2.30;;;6.80;99.60;;;;;;4995387;28;20049;-71
2023/03/04 01:19:25;;;;;;;18.00;2.40;;;6.80;99.60;;;;;;4978962;28;20134;-72
2023/03/04 01:21:51;;;;;;;14.80;2.33;;;6.80;99.60;;;;;;4995083;28;20045;-72
2023/03/04 01:24:16;;;;;;;21.60;2.78;;;6.80;99.60;;;;;;4995357;28;20045;-71
2023/03/04 01:26:42;;;;;;;18.60;2.50;;;6.80;99.60;;;;;;4994948;28;20415;-71
2023/03/04 01:29:07;;;;;;;19.38;2.20;;;6.70;99.70;;;;;;4995088;28;20053;-72
2023/03/04 01:31:33;;;;;;;12.40;2.10;;;6.70;99.70;;;;;;4995125;28;20042;-71
2023/03/04 01:33:59;;;;;;;15.55;2.33;;;6.70;99.80;;;;;;4995080;28;20411;-71
2023/03/04 01:36:24;;;;;;;17.15;2.63;;;6.70;99.90;;;;;;4978729;28;20039;-71
2023/03/04 01:38:50;;;;;;;16.02;2.80;;;6.70;99.90;;;;;;4995004;28;20049;-72
2023/03/04 01:41:22;;;;;;;14.88;2.30;;;6.70;99.90;;;;;;4978578;28;20526;-71
2023/03/04 01:43:47;;;;;;;18.45;2.53;;;6.70;99.90;;;;;;4978802;28;20061;-72
2023/03/04 01:46:13;;;;;;;11.63;2.20;;;6.70;99.90;;;;;;4994181;28;20748;-71
2023/03/04 01:48:40;;;;;;;15.70;2.47;;;6.70;99.90;;;;;;4994577;28;20088;-71
2023/03/04 01:51:11;;;;;;;16.00;2.53;;;6.70;99.90;;;;;;4978422;28;20038;-72
2023/03/04 01:53:36;;;;;;;20.85;2.55;;;6.60;99.90;;;;;;4994531;28;20434;-71
2023/03/04 01:56:21;;;;;;;11.57;2.15;;;6.60;99.90;;;;;;4978177;28;20034;-71
2023/03/04 01:59:10;;;;;;;16.25;2.30;;;6.60;99.90;;;;;;4978452;28;20057;-71
2023/03/04 02:01:36;;;;;;;13.05;2.45;;;6.60;99.90;;;;;;4978214;28;20039;-71
2023/03/04 02:04:02;;;;;;;15.13;2.28;;;6.60;99.90;;;;;;4994238;28;20042;-71
2023/03/04 02:06:28;;;;;;;14.98;2.30;;;6.60;99.90;;;;;;4978002;28;20129;-72
2023/03/04 02:08:54;;;;;;;14.90;2.67;;;6.60;99.90;;;;;;4994222;28;20070;-72
2023/03/04 02:11:19;;;;;;;17.02;2.25;;;6.60;99.90;;;;;;4978055;28;20070;-71
2023/03/04 02:13:45;;;;;;;18.95;2.38;;;6.60;99.90;;;;;;4994417;28;20041;-72
2023/03/04 02:16:11;;;;;;;16.92;2.42;;;6.50;99.90;;;;;;4994289;28;20125;-71
2023/03/04 02:18:36;;;;;;;11.13;2.13;;;6.60;99.90;;;;;;4994057;28;20518;-72
2023/03/04 02:21:05;;;;;;;20.23;3.30;;;6.50;99.90;;;;;;4994230;28;20044;-72
2023/03/04 02:23:41;;;;;;;12.63;2.72;;;6.50;99.90;;;;;;4977694;28;20510;-71
2023/03/04 02:26:25;;;;;;;13.80;2.15;;;6.50;99.90;;;;;;4994105;28;20449;-70
2023/03/04 02:28:52;;;;;;;14.68;2.05;;;6.50;99.90;;;;;;4993812;28;20046;-72
2023/03/04 02:31:36;;;;;;;15.07;2.80;;;6.50;99.90;;;;;;4994084;28;20035;-72
2023/03/04 02:34:24;;;;;;;19.05;2.75;;;6.50;99.90;;;;;;4994008;28;20046;-71
2023/03/04 02:36:52;;;;;;;21.52;2.25;;;6.40;99.90;;;;;;4992911;28;20053;-71
2023/03/04 02:39:34;;;;;;;16.35;2.63;;;6.40;99.90;;;;;;4993612;28;20050;-72
2023/03/04 02:42:01;;;;;;;14.77;2.33;;;6.40;99.90;;;;;;4993955;28;20192;-72
2023/03/04 02:44:36;;;;;;;13.23;2.28;;;6.40;99.90;;;;;;4977357;28;20125;-72
2023/03/04 02:47:04;;;;;;;13.63;2.10;;;6.40;99.90;;;;;;4993348;28;20503;-71
2023/03/04 02:49:31;;;;;;;19.27;2.70;;;6.40;99.90;;;;;;4993407;28;20039;-72
2023/03/04 02:52:04;;;;;;;18.30;3.03;;;6.40;99.90;;;;;;4993424;28;20116;-72
2023/03/04 02:54:30;;;;;;;;;;;6.40;99.90;;;;;;4977875;28;20042;-71
2023/03/04 02:57:00;;;;;;;17.25;3.22;;;6.30;99.90;;;;;;4992667;28;20071;-71
2023/03/04 02:59:26;;;;;;;16.63;2.65;;;6.30;99.90;;;;;;4977129;28;20042;-72
2023/03/04 03:01:53;;;;;;;17.10;2.55;;;6.30;99.90;;;;;;4993533;28;20045;-71
2023/03/04 03:04:20;;;;;;;18.80;3.00;;;6.30;99.90;;;;;;4993175;28;20081;-72
2023/03/04 03:06:46;;;;;;;19.65;2.40;;;6.40;99.90;;;;;;4993326;28;20073;-72
2023/03/04 03:09:12;;;;;;;19.30;2.70;;;6.30;99.90;;;;;;4993039;28;20054;-72
2023/03/04 03:11:38;;;;;;;13.50;3.05;;;6.30;99.90;;;;;;4993086;28;20035;-71
2023/03/04 03:14:03;;;;;;;12.75;2.53;;;6.40;99.90;;;;;;4993078;28;20076;-72
2023/03/04 03:16:29;;;;;;;15.02;2.58;;;6.40;99.90;;;;;;4992934;28;20065;-70
2023/03/04 03:18:55;;;;;;;18.02;2.63;;;6.40;99.90;;;;;;4992944;28;20042;-72
2023/03/04 03:21:21;;;;;;;16.15;2.85;;;6.40;99.90;;;;;;4976982;28;20046;-72
2023/03/04 03:23:46;;;;;;;16.55;2.22;;;6.40;99.90;;;;;;4992845;28;20388;-72
2023/03/04 03:26:12;;;;;;;12.25;2.20;;;6.40;99.90;;;;;;4976862;28;20042;-71
2023/03/04 03:28:38;;;;;;;14.05;2.53;;;6.40;99.90;;;;;;4992982;28;20053;-72
2023/03/04 03:31:04;;;;;;;13.18;1.70;;;6.40;99.90;;;;;;4976792;28;20046;-72
2023/03/04 03:33:29;;;;;;;14.98;2.25;;;6.40;99.90;;;;;;4993041;28;20042;-72
2023/03/04 03:35:55;;;;;;;14.60;2.50;;;6.40;99.90;;;;;;4992755;28;20038;-71
2023/03/04 03:38:20;;;;;;;13.30;2.03;;;6.40;99.90;;;;;;4976438;28;20399;-71
2023/03/04 03:40:46;;;;;;;9.75;2.20;;;6.40;99.90;;;;;;4992678;28;20048;-72
2023/03/04 03:43:12;;;;;;;16.92;2.92;;;6.40;99.90;;;;;;4992602;28;20042;-71
2023/03/04 03:45:37;;;;;;;14.68;2.22;;;6.40;99.90;;;;;;4992779;28;20045;-71
2023/03/04 03:48:03;;;;;;;11.07;1.95;;;6.40;99.90;;;;;;4992375;28;20474;-71
2023/03/04 03:50:29;;;;;;;15.95;2.45;;;6.30;99.90;;;;;;4976278;28;20038;-72
2023/03/04 03:52:55;;;;;;;16.42;2.80;;;6.30;99.90;;;;;;4992516;28;20450;-72
2023/03/04 03:55:20;;;;;;;14.13;2.20;;;6.40;99.90;;;;;;4992433;28;20034;-71
2023/03/04 03:57:46;;;;;;;16.20;3.17;;;6.30;99.90;;;;;;4976230;28;20089;-71
2023/03/04 04:00:13;;;;;;;12.25;1.98;;;6.40;99.90;;;;;;4976261;28;20038;-71
2023/03/04 04:02:39;;;;;;;15.73;2.45;;;6.30;99.90;;;;;;4992706;28;20048;-72
2023/03/04 04:05:06;;;;;;;19.38;2.67;;;6.30;99.90;;;;;;4976516;28;20039;-71
2023/03/04 04:07:32;;;;;;;11.63;1.73;;;6.30;99.90;;;;;;4992932;28;20080;-71
2023/03/04 04:09:57;;;;;;;11.68;2.05;;;6.30;99.90;;;;;;4980100;28;20487;-72
2023/03/04 04:12:23;;;;;;;14.48;2.85;;;6.40;99.90;;;;;;4996355;28;20124;-70
2023/03/04 04:14:48;;;;;;;12.90;3.33;;;6.30;99.90;;;;;;4996651;28;20046;-71
2023/03/04 04:17:14;;;;;;;15.63;2.13;;;6.30;99.90;;;;;;4996204;28;20042;-71
2023/03/04 04:19:40;;;;;;;12.85;2.17;;;6.30;99.90;;;;;;4996231;28;20050;-72
2023/03/04 04:22:11;;;;;;;15.52;2.50;;;6.30;99.90;;;;;;4996221;28;20078;-71
2023/03/04 04:24:37;;;;;;;17.50;3.30;;;6.30;99.90;;;;;;4996406;28;20046;-71
2023/03/04 04:27:03;;;;;;;13.55;2.22;;;6.30;99.90;;;;;;4996362;28;20092;-71
2023/03/04 04:29:29;;;;;;;11.93;2.08;;;6.30;99.90;;;;;;4996197;28;20046;-71
2023/03/04 04:31:54;;;;;;;15.68;1.92;;;6.30;99.90;;;;;;4996032;28;20177;-71
2023/03/04 04:34:20;;;;;;;10.45;1.95;;;6.30;99.90;;;;;;4995973;28;20107;-71
2023/03/04 04:36:46;;;;;;;14.70;2.30;;;6.30;99.90;;;;;;4979907;28;20505;-71
2023/03/04 04:39:12;;;;;;;13.10;2.50;;;6.30;99.90;;;;;;4995886;28;20499;-71
2023/03/04 04:41:40;;;;;;;15.07;2.03;;;6.30;99.90;;;;;;4979620;28;20073;-71
2023/03/04 04:44:06;;;;;;;13.43;2.10;;;6.30;99.90;;;;;;4995824;28;20046;-71
2023/03/04 04:46:32;;;;;;;14.82;1.88;;;6.30;99.90;;;;;;4995567;28;20042;-71
2023/03/04 04:48:57;;;;;;;11.02;1.75;;;6.30;99.90;;;;;;4979461;28;20042;-72
2023/03/04 04:51:23;;;;;;;14.23;1.90;;;6.30;99.90;;;;;;4995694;28;20046;-72
2023/03/04 04:53:48;;;;;;;15.02;1.75;;;6.30;99.90;;;;;;4979393;28;20038;-71
2023/03/04 04:56:17;;;;;;;17.73;2.03;;;6.30;99.90;;;;;;4979318;28;20046;-70
2023/03/04 04:58:44;;;;;;;12.07;2.45;;;6.30;99.90;;;;;;4996671;28;20048;-72
2023/03/04 05:01:10;;;;;;;11.02;2.03;;;6.30;99.90;;;;;;4995504;28;20400;-72
2023/03/04 05:03:36;;;;;;;15.35;2.20;;;6.30;99.90;;;;;;4995474;28;20130;-71
2023/03/04 05:06:04;;;;;;;15.07;1.90;;;6.30;99.90;;;;;;4995294;28;20576;-71
2023/03/04 05:08:30;;;;;;;11.68;1.95;;;6.20;99.90;;;;;;4995389;28;20038;-72
2023/03/04 05:10:56;;;;;;;16.92;2.25;;;6.20;99.90;;;;;;4979040;28;20044;-72
2023/03/04 05:13:22;;;;;;;14.68;3.35;;;6.30;99.90;;;;;;4995312;28;20045;-71
2023/03/04 05:15:50;;;;;;;15.15;2.53;;;6.20;99.90;;;;;;4979014;28;20035;-71
2023/03/04 05:18:16;;;;;;;16.90;1.90;;;6.20;99.90;;;;;;4978871;28;20409;-71
2023/03/04 05:20:42;;;;;;;14.90;2.08;;;6.20;99.90;;;;;;4994499;28;20089;-72
2023/03/04 05:23:07;;;;;;;16.15;2.92;;;6.20;99.90;;;;;;4980239;28;20038;-72
2023/03/04 05:25:33;;;;;;;14.48;2.03;;;6.10;99.90;;;;;;4995026;28;20534;-71
2023/03/04 05:28:00;;;;;;;13.80;2.15;;;6.10;99.90;;;;;;4994996;28;20042;-71
2023/03/04 05:30:26;;;;;;;13.75;2.50;;;6.10;99.90;;;;;;4978955;28;20404;-71
2023/03/04 05:32:52;;;;;;;13.48;1.98;;;6.10;99.90;;;;;;4994920;28;20038;-71
2023/03/04 05:35:18;;;;;;;12.82;2.10;;;6.10;99.90;;;;;;4995154;28;20044;-72
2023/03/04 05:37:43;;;;;;;11.50;1.83;;;6.20;99.90;;;;;;4978547;28;20129;-71
2023/03/04 05:40:10;;;;;;;12.23;2.00;;;6.10;99.90;;;;;;4995065;28;20415;-71
2023/03/04 05:42:35;;;;;;;11.68;2.80;;;6.10;99.90;;;;;;4995010;28;20507;-72
2023/03/04 05:45:01;;;;;;;15.30;1.98;;;6.10;99.90;;;;;;4994656;28;20042;-71
2023/03/04 05:47:26;;;;;;;12.13;2.10;;;6.10;99.90;;;;;;4994769;28;20148;-71
2023/03/04 05:49:53;;;;;;;12.38;1.77;;;6.10;99.90;;;;;;4994557;28;20518;-72
2023/03/04 05:52:19;;;;;;;9.90;1.67;;;6.10;99.90;;;;;;4994645;28;20048;-72
2023/03/04 05:54:44;;;;;;;13.85;1.67;;;6.10;99.90;;;;;;4995174;28;20046;-71
2023/03/04 05:57:10;;;;;;;14.35;1.60;;;6.10;99.90;;;;;;4978211;28;20406;-71
2023/03/04 05:59:36;;;;;;;11.13;1.70;;;6.10;99.90;;;;;;4978252;28;20045;-72
2023/03/04 06:02:01;;;;;;;11.93;2.00;;;6.00;99.90;;;;;;4978435;28;20046;-71
2023/03/04 06:04:27;;;;;;;11.32;1.60;;;6.10;99.90;;;;;;4978455;28;20128;-71
2023/03/04 06:06:52;;;;;;;11.18;1.40;;;6.10;99.90;;;;;;4994180;28;20526;-71
2023/03/04 06:09:19;;;;;;;8.25;1.20;;;6.10;99.90;;;;;;4994174;28;20042;-71
2023/03/04 06:11:45;;;;;;;16.63;2.13;;;6.10;99.90;;;;;;4978265;28;20142;-71
2023/03/04 06:14:11;;;;;;;9.65;1.17;;;6.10;99.90;;;;;;4994434;28;20562;-72
2023/03/04 06:16:37;;;;;;;7.68;1.42;;;6.10;99.90;;;;;;4977861;28;20495;-71
2023/03/04 06:19:02;;;;;;;7.40;1.17;;;6.10;99.90;;;;;;4994324;28;20038;-72
2023/03/04 06:21:28;;;;;;;6.97;1.42;;;6.10;99.90;;;;;;4977840;28;20522;-72
2023/03/04 06:23:53;;;;;;;8.73;1.60;;;6.10;99.90;;;;;;4994192;28;20046;-72
2023/03/04 06:26:22;;;;;;;5.38;0.80;;;6.10;99.90;;;;;;4993836;28;20511;-71
2023/03/04 06:28:47;;;;;;;11.45;1.83;;;6.10;99.90;;;;;;4977596;28;20419;-72
2023/03/04 06:31:13;;;;;;;7.40;1.20;;;6.00;99.90;;;;;;4993339;28;20030;-72
2023/03/04 06:33:38;;;;;;;12.63;1.23;;;6.00;99.90;;;;;;4993611;28;20089;-71
2023/03/04 06:36:04;;;;;;;12.43;1.85;;;6.00;99.90;;;;;;4993913;28;20503;-70
2023/03/04 06:38:30;;;;;;;9.85;1.42;;;6.00;99.90;;;;;;4977560;28;20038;-71
2023/03/04 06:40:55;;;;;;;10.77;1.25;;;6.00;99.90;;;;;;4977466;28;20050;-72
2023/03/04 06:43:21;;;;;;;10.48;1.30;;;6.00;99.90;;;;;;4993572;28;20125;-71
2023/03/04 06:45:47;;;;;;;11.77;1.25;;;6.00;99.90;;;;;;4993470;28;20042;-71
2023/03/04 06:48:13;;;;;;;10.90;1.33;;;6.10;99.90;;;;;;4993358;28;20069;-72
2023/03/04 06:50:39;;;;;;;11.43;1.75;;;6.00;99.90;;;;;;4977247;28;20069;-72
2023/03/04 06:53:04;;;;;;;11.15;1.45;;;6.10;99.90;;;;;;4993393;28;20034;-72
2023/03/04 06:55:30;;;;;;;8.52;1.75;;;6.10;99.90;;;;;;4993347;28;20040;-71
2023/03/04 06:57:56;;;;;;;10.15;1.27;;;6.10;99.90;;;;;;4993223;28;20042;-71
2023/03/04 07:00:23;;;;;;;7.70;1.30;;;6.10;99.90;;;;;;4977132;28;20046;-71
2023/03/04 07:02:49;;;;;;;9.23;1.15;;;6.10;99.90;;;;;;4993521;28;20050;-72
2023/03/04 07:05:14;;;;;;;6.38;1.08;;;6.10;99.90;;;;;;4993152;28;20049;-71
2023/03/04 07:07:40;;;;;;;8.10;1.30;;;6.10;99.90;;;;;;4993065;28;20046;-71
2023/03/04 07:10:06;;;;;;;10.23;1.45;;;6.20;99.90;;;;;;4993152;28;20407;-72
2023/03/04 07:12:32;;;;;;;9.85;1.77;;;6.20;99.90;;;;;;4977073;28;20491;-72
2023/03/04 07:14:58;;;;;;;6.40;1.85;;;6.20;99.90;;;;;;4976842;28;20041;-71
2023/03/04 07:17:23;;;;;;;13.25;1.40;;;6.20;99.90;;;;;;4992919;28;20053;-71
2023/03/04 07:19:49;;;;;;;10.98;2.15;;;6.30;99.90;;;;;;4993194;28;20042;-72
2023/03/04 07:22:14;;;;;;;8.80;1.17;;;6.30;99.90;;;;;;4977013;28;20096;-72
2023/03/04 07:24:40;;;;;;;6.63;1.05;;;6.30;99.90;;;;;;4992880;28;20380;-71
2023/03/04 07:27:06;;;;;;;12.73;2.15;;;6.40;99.90;;;;;;4993219;28;20088;-72
2023/03/04 07:29:31;;;;;;;6.63;1.40;;;6.40;99.90;;;;;;4993002;28;20034;-72
2023/03/04 07:31:57;;;;;;;9.77;1.65;;;6.50;99.90;;;;;;4992781;28;20474;-72
2023/03/04 07:34:22;;;;;;;10.05;1.67;;;6.50;99.90;;;;;;4993031;28;20042;-71
2023/03/04 07:36:48;;;;;;;8.43;1.40;;;6.50;99.90;;;;;;4992906;28;20130;-71
2023/03/04 07:39:14;;;;;;;10.98;1.48;;;6.60;99.90;;;;;;4992735;28;20077;-71
2023/03/04 07:41:40;;;;;;;8.65;1.38;;;6.70;99.90;;;;;;4992652;28;20109;-71
2023/03/04 07:44:07;;;;;;;9.35;1.67;;;6.70;99.90;;;;;;4976328;28;20094;-71
2023/03/04 07:46:33;;;;;;;9.02;1.85;;;6.80;99.90;;;;;;4976603;28;20046;-71
2023/03/04 07:48:59;;;;;;;9.45;1.20;;;6.80;99.90;;;;;;4976285;28;20042;-72
2023/03/04 07:51:26;;;;;;;9.82;1.50;;;6.80;99.90;;;;;;4992919;28;20034;-71
2023/03/04 07:53:56;;;;;;;9.32;1.58;;;6.80;99.90;;;;;;4992790;28;20495;-72
2023/03/04 07:56:24;;;;;;;9.20;1.45;;;6.70;99.90;;;;;;4992607;28;20078;-71
2023/03/04 07:58:53;;;;;;;8.70;2.00;;;6.70;99.90;;;;;;4992466;28;20487;-71
2023/03/04 08:01:22;;;;;;;13.15;1.75;;;6.70;99.90;;;;;;4992821;28;20439;-71
2023/03/04 08:03:48;;;;;;;11.48;1.60;;;6.60;99.90;;;;;;4992722;28;20035;-71
2023/03/04 08:06:15;;;;;;;7.93;1.30;;;6.60;99.90;;;;;;4976441;28;20519;-71
2023/03/04 08:08:41;;;;;;;9.15;1.73;;;6.60;99.90;;;;;;4976452;28;20121;-71
2023/03/04 08:11:11;;;;;;;11.13;1.65;;;6.60;99.90;;;;;;4976409;28;20560;-71
2023/03/04 08:13:37;;;;;;;11.10;1.50;;;6.60;99.90;;;;;;4992342;28;20042;-71
2023/03/04 08:16:03;;;;;;;10.88;1.60;;;6.60;99.90;;;;;;4992278;28;20034;-71
2023/03/04 08:18:28;;;;;;;7.90;1.35;;;6.60;99.90;;;;;;4976164;28;20043;-72
2023/03/04 08:20:54;;;;;;;14.43;2.08;;;6.70;99.90;;;;;;4976364;28;20042;-72
2023/03/04 08:23:20;;;;;;;8.63;1.60;;;6.80;99.90;;;;;;4992290;28;20477;-72
2023/03/04 08:25:46;;;;;;;13.05;2.10;;;6.90;99.90;;;;;;4992225;28;20038;-71
2023/03/04 08:28:12;;;;;;;13.35;2.08;;;7.00;99.90;;;;;;4992199;28;20046;-71
2023/03/04 08:30:39;;;;;;;12.40;2.75;;;7.10;99.90;;;;;;4992174;28;20046;-72
2023/03/04 08:33:05;;;;;;;18.83;2.53;;;7.10;99.90;;;;;;4992379;28;20125;-72
2023/03/04 08:35:31;;;;;;;11.32;2.00;;;7.10;99.90;;;;;;4976045;28;20484;-71
2023/03/04 08:37:57;;;;;;;17.17;2.55;;;7.20;99.90;;;;;;4992696;28;20046;-72
2023/03/04 08:40:25;;;;;;;18.05;2.92;;;7.10;99.90;;;;;;4992081;28;20073;-72
2023/03/04 08:42:51;;;;;;;16.95;2.50;;;7.10;99.90;;;;;;4992369;28;20553;-71
2023/03/04 08:45:17;;;;;;;13.52;1.90;;;7.10;99.90;;;;;;4975880;28;20086;-71
2023/03/04 08:47:42;;;;;;;16.00;2.80;;;7.10;99.90;;;;;;4992003;28;20061;-71
2023/03/04 08:50:08;;;;;;;15.30;3.00;;;7.20;99.90;;;;;;4992100;28;20132;-72
2023/03/04 08:52:35;;;;;;;14.10;2.50;;;7.10;99.90;;;;;;4992232;28;20109;-71
2023/03/04 08:55:01;;;;;;;17.58;2.88;;;7.10;99.90;;;;;;4992913;28;20038;-72
2023/03/04 08:57:26;;;;;;;19.58;3.30;;;7.10;99.90;;;;;;4979303;28;20031;-71
2023/03/04 08:59:52;;;;;;;18.63;2.95;;;7.10;99.90;;;;;;4995746;28;20081;-72
2023/03/04 09:02:17;;;;;;;15.63;2.58;;;7.20;99.90;;;;;;4995511;28;20517;-71
2023/03/04 09:04:43;;;;;;;14.65;2.38;;;7.30;99.90;;;;;;4995702;28;20074;-72
2023/03/04 09:07:09;;;;;;;12.88;2.75;;;7.30;99.90;;;;;;4995351;28;20434;-71
2023/03/04 09:09:34;;;;;;;13.73;2.33;;;7.20;99.90;;;;;;4995306;28;20109;-72
2023/03/04 09:12:01;;;;;;;18.63;2.72;;;7.20;99.90;;;;;;4995310;28;20042;-71
2023/03/04 09:14:26;;;;;;;16.92;2.63;;;7.10;99.90;;;;;;4979171;28;20034;-72
2023/03/04 09:16:52;;;;;;;12.52;2.10;;;7.10;99.90;;;;;;4995172;28;20053;-71
2023/03/04 09:19:18;;;;;;;14.73;2.60;;;7.20;99.90;;;;;;4979287;28;20038;-72
2023/03/04 09:21:43;;;;;;;14.05;2.25;;;7.30;99.90;;;;;;4995144;28;20578;-72
2023/03/04 09:24:09;;;;;;;14.32;2.63;;;7.40;99.90;;;;;;4978885;28;20046;-71
2023/03/04 09:26:34;;;;;;;13.25;2.78;;;7.40;99.90;;;;;;4995006;28;20046;-71
2023/03/04 09:29:02;;;;;;;15.73;2.70;;;7.40;99.90;;;;;;4978700;28;20042;-72
2023/03/04 09:31:28;;;;;;;12.95;2.70;;;7.40;99.90;;;;;;4994981;28;20049;-72
2023/03/04 09:33:55;;;;;;;19.48;3.58;;;7.40;99.90;;;;;;4995154;28;20499;-71
2023/03/04 09:36:21;;;;;;;18.67;3.13;;;7.50;99.90;;;;;;4994840;28;20038;-71
2023/03/04 09:38:47;;;;;;;14.95;3.15;;;7.50;99.90;;;;;;4994847;28;20100;-72
2023/03/04 09:41:25;;;;;;;18.95;3.28;;;7.50;99.90;;;;;;4995089;28;20149;-72
2023/03/04 09:43:52;;;;;;;17.90;3.28;;;7.50;99.90;;;;;;4978661;28;20042;-71
2023/03/04 09:46:28;;;;;;;23.60;3.58;;;7.50;99.90;;;;;;4978349;28;20042;-71
2023/03/04 09:48:55;;;;;;;18.88;2.95;;;7.60;99.90;;;;;;4994686;28;20038;-72
2023/03/04 09:51:40;;;;;;;16.95;2.53;;;7.60;99.90;;;;;;4995140;28;20061;-72
2023/03/04 09:54:50;;;;;;;16.45;3.53;;;7.70;99.90;;;;;;4978530;28;20049;-71
2023/03/04 09:57:47;;;;;;;18.73;2.85;;;7.70;99.90;;;;;;4978676;28;20165;-71
2023/03/04 10:00:22;;;;;;;19.58;2.90;;;7.70;99.90;;;;;;4994757;28;20446;-72
2023/03/04 10:03:03;;;;;;;15.45;2.88;;;7.70;99.90;;;;;;4994494;28;20053;-72
2023/03/04 10:05:31;;;;;;;14.95;3.33;;;7.70;99.90;;;;;;4994575;28;20053;-70
2023/03/04 10:08:29;;;;;;;20.52;3.55;;;7.70;99.90;;;;;;4994095;28;20530;-71
2023/03/04 10:10:58;;;;;;;15.10;3.33;;;7.70;99.90;;;;;;4978020;28;20133;-72
2023/03/04 10:13:46;;;;;;;17.65;3.35;;;7.70;99.90;;;;;;4994214;28;20044;-71
2023/03/04 10:16:17;;;;;;;17.98;3.65;;;7.70;99.90;;;;;;4994282;28;20073;-71
2023/03/04 10:18:57;;;;;;;15.93;2.95;;;7.80;99.90;;;;;;4977979;28;20034;-71
2023/03/04 10:21:30;;;;;;;16.52;2.88;;;7.80;99.90;;;;;;4994918;28;20121;-71
2023/03/04 10:23:59;;;;;;;17.80;4.82;;;7.80;99.90;;;;;;4977810;28;20125;-72
2023/03/04 10:26:30;;;;;;;13.55;2.63;;;7.70;99.90;;;;;;4993843;28;20042;-71
2023/03/04 10:28:55;;;;;;;11.80;2.90;;;7.60;99.90;;;;;;4977963;28;20043;-72
2023/03/04 10:31:33;;;;;;;13.25;2.30;;;7.60;99.90;;;;;;4993810;28;20034;-71
2023/03/04 10:33:59;;;;;;;19.70;3.47;;;7.60;99.90;;;;;;4977602;28;20082;-71
2023/03/04 10:36:28;;;;;;;15.98;2.15;;;7.60;99.90;;;;;;4977531;28;20034;-71
2023/03/04 10:39:16;;;;;;;12.55;1.88;;;7.50;99.90;;;;;;4977556;28;20035;-71
2023/03/04 10:41:52;;;;;;;13.75;2.15;;;7.60;99.90;;;;;;4981549;28;20541;-71
2023/03/04 10:44:17;;;;;;;14.10;1.83;;;7.50;99.90;;;;;;4993744;28;20125;-72
2023/03/04 10:46:48;;;;;;;10.52;2.58;;;7.50;99.90;;;;;;4993401;28;20121;-71
2023/03/04 10:49:17;;;;;;;10.60;2.40;;;7.50;99.90;;;;;;4993487;28;20038;-71
2023/03/04 10:51:44;;;;;;;13.60;2.35;;;7.60;99.90;;;;;;4977530;28;20541;-71
2023/03/04 10:54:22;;;;;;;11.35;2.40;;;7.60;99.90;;;;;;4993449;28;20055;-71
2023/03/04 10:57:17;;;;;;;11.25;1.90;;;7.60;99.90;;;;;;4993257;28;20491;-71
2023/03/04 10:59:57;;;;;;;16.30;2.53;;;7.70;99.90;;;;;;4993318;28;20096;-72
2023/03/04 11:02:27;;;;;;;9.93;2.00;;;7.80;99.90;;;;;;4993343;28;20129;-72
2023/03/04 11:05:05;;;;;;;10.80;1.63;;;8.10;99.90;;;;;;4993204;28;20046;-72
2023/03/04 11:07:31;;;;;;;12.88;2.63;;;8.40;99.90;;;;;;4993350;28;20042;-72
2023/03/04 11:10:09;;;;;;;9.30;1.55;;;8.40;99.90;;;;;;4993278;28;20050;-72
2023/03/04 11:12:34;;;;;;;11.30;1.88;;;8.40;99.90;;;;;;4993392;28;20034;-71
2023/03/04 11:15:01;;;;;;;12.00;2.10;;;8.30;99.90;;;;;;4976924;28;20381;-71
2023/03/04 11:17:38;;;;;;;10.85;1.88;;;8.20;99.90;;;;;;4992859;28;20060;-71
2023/03/04 11:20:15;;;;;;;18.60;2.58;;;8.20;99.90;;;;;;4992985;28;20089;-72
2023/03/04 11:22:43;;;;;;;11.48;2.30;;;8.20;99.90;;;;;;4992907;28;20404;-72
2023/03/04 11:25:25;;;;;;;16.88;2.53;;;8.20;99.90;;;;;;4992896;28;20042;-72
2023/03/04 11:28:02;;;;;;;10.02;1.80;;;8.20;99.90;;;;;;4992874;28;20049;-72
2023/03/04 11:30:35;;;;;;;15.02;2.42;;;8.20;99.90;;;;;;4992889;28;20042;-72
2023/03/04 11:33:31;;;;;;;18.90;3.40;;;8.10;99.90;;;;;;4993131;28;20038;-71
2023/03/04 11:36:24;;;;;;;10.95;2.40;;;8.10;99.90;;;;;;4993038;28;20168;-72
2023/03/04 11:38:50;;;;;;;15.88;3.30;;;8.10;99.90;;;;;;4992765;28;20042;-72
2023/03/04 11:41:40;;;;;;;22.58;3.60;;;8.00;99.90;;;;;;4976745;28;20038;-71
2023/03/04 11:44:07;;;;;;;18.38;3.70;;;8.10;99.90;;;;;;4992928;28;20065;-72
2023/03/04 11:47:03;;;;;;;17.52;3.30;;;8.00;99.90;;;;;;4992527;28;20495;-71
2023/03/04 11:49:53;;;;;;;20.10;3.22;;;8.10;99.90;;;;;;4992553;28;20089;-72
2023/03/04 11:52:30;;;;;;;17.30;2.85;;;8.10;99.90;;;;;;4992614;28;20488;-72
2023/03/04 11:55:03;;;;;;;19.08;2.72;;;8.10;99.90;;;;;;4976386;28;20045;-71
2023/03/04 11:58:04;;;;;;;16.30;3.40;;;8.10;99.90;;;;;;4976283;28;20042;-71
2023/03/04 12:01:02;;;;;;;13.57;2.67;;;8.20;99.90;;;;;;4918054;29;20386;-72
2023/03/04 12:03:48;;;;;;;16.30;2.40;;;8.20;99.90;;;;;;4992701;28;20051;-71
2023/03/04 12:06:44;;;;;;;14.02;2.35;;;8.20;99.90;;;;;;4992505;28;20046;-71
2023/03/04 12:09:41;;;;;;;10.98;2.35;;;8.20;99.90;;;;;;4992919;28;20506;-72
2023/03/04 12:12:22;;;;;;;14.80;2.40;;;8.20;99.90;;;;;;4992838;28;20120;-71
2023/03/04 12:15:07;;;;;;;15.32;2.40;;;8.20;99.90;;;;;;4992474;28;20045;-74
2023/03/04 12:18:03;;;;;;;14.40;2.90;;;8.40;99.90;;;;;;4976137;28;20510;-72
2023/03/04 12:20:57;;;;;;;13.68;2.63;;;8.60;99.90;;;;;;4937473;28;20052;-72
2023/03/04 12:23:29;;;;;;;16.67;2.65;;;8.70;99.80;;;;;;4976604;28;20069;-72
2023/03/04 12:26:13;;;;;;;15.15;2.80;;;8.70;99.70;;;;;;4992223;28;20046;-72
2023/03/04 12:28:53;;;;;;;14.75;2.50;;;8.70;99.50;;;;;;4992239;28;20042;-72
2023/03/04 12:31:41;;;;;;;14.25;2.60;;;8.90;99.50;;;;;;4994990;28;20098;-71
2023/03/04 12:34:15;;;;;;;17.00;3.13;;;9.00;98.70;;;;;;4996098;28;20066;-72
2023/03/04 12:37:19;;;;;;;13.95;2.53;;;9.10;99.10;;;;;;4979720;28;20042;-72
2023/03/04 12:39:44;;;;;;;19.30;3.10;;;9.20;99.00;;;;;;4996011;28;20046;-72
2023/03/04 12:42:36;;;;;;;17.10;2.80;;;9.00;99.40;;;;;;4995957;28;20112;-71
2023/03/04 12:45:15;;;;;;;14.52;2.80;;;8.90;99.80;;;;;;4995993;28;20042;-71
2023/03/04 12:47:51;;;;;;;12.95;2.92;;;8.80;99.90;;;;;;4979564;28;20449;-71
2023/03/04 12:50:30;;;;;;;18.60;3.70;;;8.70;99.90;;;;;;4979468;28;20411;-72
2023/03/04 12:53:14;;;;;;;17.83;3.35;;;8.60;99.90;;;;;;4979440;28;20532;-71
2023/03/04 12:55:43;;;;;;;19.15;3.53;;;8.60;99.90;;;;;;4979740;28;20214;-72
2023/03/04 12:58:22;;;;;;;20.75;3.70;;;8.50;99.90;;;;;;4995712;28;20442;-72
2023/03/04 13:01:38;;;;;;;16.77;3.22;;;8.60;99.90;;;;;;4979362;28;20092;-71